createdAt,value
2022-10-22T00:01:12.406Z,43.95
2022-10-22T00:03:41.975Z,46.88
2022-10-22T00:06:10.136Z,52.10
2022-10-22T00:08:38.396Z,50.20
2022-10-22T00:11:11.361Z,52.00
2022-10-22T00:13:39.533Z,46.67
2022-10-22T00:16:07.989Z,46.80
2022-10-22T00:18:36.228Z,51.42
2022-10-22T00:21:06.645Z,49.03
2022-10-22T00:23:35.168Z,48.88
2022-10-22T00:26:03.320Z,51.25
2022-10-22T00:28:31.445Z,46.92
2022-10-22T00:31:00.962Z,56.15
2022-10-22T00:33:30.320Z,53.03
2022-10-22T00:35:58.554Z,47.50
2022-10-22T00:38:28.268Z,53.28
2022-10-22T00:40:56.646Z,46.28
2022-10-22T00:43:24.848Z,51.78
2022-10-22T00:45:53.035Z,60.90
2022-10-22T00:48:24.218Z,52.70
2022-10-22T00:50:56.494Z,49.67
2022-10-22T00:53:30.446Z,53.58
2022-10-22T00:55:58.765Z,46.35
2022-10-22T00:58:32.212Z,49.72
2022-10-22T01:01:00.621Z,47.30
2022-10-22T01:03:29.485Z,51.28
2022-10-22T01:05:59.535Z,47.20
2022-10-22T01:08:38.152Z,55.97
2022-10-22T01:11:16.167Z,45.33
2022-10-22T01:13:55.252Z,46.22
2022-10-22T01:16:31.506Z,50.38
2022-10-22T01:19:10.189Z,45.25
2022-10-22T01:21:43.437Z,47.80
2022-10-22T01:24:24.934Z,47.45
2022-10-22T01:27:10.261Z,48.22
2022-10-22T01:29:43.917Z,48.08
2022-10-22T01:32:16.745Z,43.85
2022-10-22T01:34:48.094Z,48.08
2022-10-22T01:37:19.043Z,53.85
2022-10-22T01:39:48.647Z,47.80
2022-10-22T01:42:16.913Z,46.13
2022-10-22T01:44:48.812Z,46.97
2022-10-22T01:47:26.879Z,46.55
2022-10-22T01:50:24.849Z,49.78
2022-10-22T01:53:20.056Z,47.25
2022-10-22T01:56:00.715Z,46.13
2022-10-22T01:58:40.832Z,50.90
2022-10-22T02:01:19.172Z,48.60
2022-10-22T02:03:54.006Z,51.92
2022-10-22T02:06:24.747Z,53.25
2022-10-22T02:08:55.732Z,41.38
2022-10-22T02:11:23.989Z,45.90
2022-10-22T02:13:57.826Z,45.65
2022-10-22T02:16:32.694Z,50.78
2022-10-22T02:19:06.978Z,50.45
2022-10-22T02:21:35.262Z,46.55
2022-10-22T02:24:03.585Z,53.60
2022-10-22T02:26:36.279Z,48.92
2022-10-22T02:29:09.730Z,55.67
2022-10-22T02:31:44.150Z,49.33
2022-10-22T02:34:17.457Z,49.50
2022-10-22T02:36:50.316Z,48.63
2022-10-22T02:39:20.237Z,46.22
2022-10-22T02:41:48.886Z,48.38
2022-10-22T02:44:17.331Z,51.15
2022-10-22T02:46:46.831Z,49.50
2022-10-22T02:49:15.062Z,48.88
2022-10-22T02:51:43.236Z,50.75
2022-10-22T02:54:11.488Z,52.20
2022-10-22T02:56:39.717Z,50.72
2022-10-22T02:59:07.854Z,56.70
2022-10-22T03:01:36.090Z,53.38
2022-10-22T03:04:06.390Z,55.35
2022-10-22T03:06:34.615Z,55.08
2022-10-22T03:09:02.816Z,49.42
2022-10-22T03:11:31.023Z,54.13
2022-10-22T03:13:59.122Z,50.15
2022-10-22T03:16:27.399Z,53.70
2022-10-22T03:18:55.576Z,49.20
2022-10-22T03:21:30.898Z,53.25
2022-10-22T03:24:00.703Z,48.85
2022-10-22T03:26:28.866Z,55.45
2022-10-22T03:28:57.326Z,55.97
2022-10-22T03:31:25.460Z,55.40
2022-10-22T03:33:53.672Z,57.75
2022-10-22T03:36:21.906Z,49.60
2022-10-22T03:38:51.665Z,52.78
2022-10-22T03:41:19.900Z,53.13
2022-10-22T03:43:51.586Z,53.38
2022-10-22T03:46:19.916Z,55.97
2022-10-22T03:48:48.159Z,58.53
2022-10-22T03:51:16.278Z,52.88
2022-10-22T03:53:44.443Z,57.63
2022-10-22T03:56:14.769Z,51.88
2022-10-22T03:58:43.357Z,54.33
2022-10-22T04:01:12.840Z,49.90
2022-10-22T04:03:41.753Z,54.67
2022-10-22T04:06:12.066Z,58.25
2022-10-22T04:08:40.967Z,53.35
2022-10-22T04:11:09.699Z,56.53
2022-10-22T04:13:39.566Z,54.13
2022-10-22T04:16:11.760Z,53.50
2022-10-22T04:18:41.127Z,48.65
2022-10-22T04:21:10.896Z,51.05
2022-10-22T04:23:39.446Z,53.13
2022-10-22T04:26:08.815Z,54.60
2022-10-22T04:28:38.449Z,54.53
2022-10-22T04:31:10.459Z,48.53
2022-10-22T04:33:38.772Z,55.65
2022-10-22T04:36:12.015Z,55.60
2022-10-22T04:38:40.397Z,54.00
2022-10-22T04:41:13.654Z,46.70
2022-10-22T04:43:44.026Z,52.33
2022-10-22T04:46:13.992Z,52.60
2022-10-22T04:48:44.253Z,64.90
2022-10-22T04:51:14.451Z,49.22
2022-10-22T04:53:43.020Z,47.88
2022-10-22T04:56:13.702Z,52.00
2022-10-22T04:58:44.581Z,53.17
2022-10-22T05:01:14.657Z,53.80
2022-10-22T05:03:43.460Z,55.70
2022-10-22T05:08:41.956Z,51.05
2022-10-22T05:11:14.504Z,62.83
2022-10-22T05:13:44.170Z,53.63
2022-10-22T05:16:12.389Z,52.70
2022-10-22T05:18:42.349Z,56.80
2022-10-22T05:21:12.239Z,65.28
2022-10-22T05:23:40.927Z,59.90
2022-10-22T05:26:11.074Z,62.80
2022-10-22T05:28:40.783Z,64.57
2022-10-22T05:31:12.837Z,64.88
2022-10-22T05:33:41.562Z,56.08
2022-10-22T05:36:12.481Z,67.50
2022-10-22T05:38:40.723Z,69.57
2022-10-22T05:41:10.262Z,78.57
2022-10-22T05:43:39.285Z,69.20
2022-10-22T05:46:13.500Z,96.15
2022-10-22T05:48:42.110Z,76.32
2022-10-22T05:51:13.584Z,64.18
2022-10-22T05:53:43.291Z,71.43
2022-10-22T05:56:15.261Z,66.32
2022-10-22T05:58:43.753Z,69.90
2022-10-22T06:01:15.676Z,61.65
2022-10-22T06:03:44.709Z,67.82
2022-10-22T06:06:19.681Z,74.40
2022-10-22T06:08:49.055Z,71.50
2022-10-22T06:11:18.618Z,73.07
2022-10-22T06:13:47.535Z,87.18
2022-10-22T06:16:17.422Z,75.03
2022-10-22T06:18:45.578Z,78.13
2022-10-22T06:21:15.356Z,71.75
2022-10-22T06:23:44.401Z,80.95
2022-10-22T06:26:12.739Z,83.75
2022-10-22T06:28:40.917Z,71.05
2022-10-22T06:31:09.067Z,80.45
2022-10-22T06:33:42.325Z,68.65
2022-10-22T06:36:12.759Z,82.13
2022-10-22T06:38:41.806Z,76.85
2022-10-22T06:41:11.832Z,70.03
2022-10-22T06:43:40.086Z,81.00
2022-10-22T06:46:14.691Z,87.28
2022-10-22T06:48:50.725Z,66.63
2022-10-22T06:51:19.302Z,74.72
2022-10-22T06:53:47.516Z,71.38
2022-10-22T06:56:18.229Z,72.30
2022-10-22T06:58:49.021Z,73.28
2022-10-22T07:01:19.319Z,65.82
2022-10-22T07:03:50.766Z,74.43
2022-10-22T07:06:19.786Z,92.97
2022-10-22T07:08:48.024Z,80.25
2022-10-22T07:11:18.617Z,73.50
2022-10-22T07:13:47.727Z,72.10
2022-10-22T07:16:16.992Z,77.50
2022-10-22T07:18:46.041Z,72.35
2022-10-22T07:21:17.060Z,71.65
2022-10-22T07:23:46.164Z,80.97
2022-10-22T07:26:16.021Z,82.13
2022-10-22T07:28:44.380Z,69.75
2022-10-22T07:31:14.536Z,72.80
2022-10-22T07:33:42.962Z,72.28
2022-10-22T07:36:17.512Z,82.18
2022-10-22T07:38:48.034Z,76.75
2022-10-22T07:41:16.992Z,80.20
2022-10-22T07:43:45.484Z,79.88
2022-10-22T07:46:13.640Z,81.68
2022-10-22T07:48:42.151Z,74.53
2022-10-22T07:51:10.456Z,88.00
2022-10-22T07:53:38.793Z,74.47
2022-10-22T07:56:09.199Z,83.50
2022-10-22T07:58:37.626Z,83.55
2022-10-22T08:01:06.806Z,90.03
2022-10-22T08:03:35.191Z,85.57
2022-10-22T08:06:04.110Z,83.63
2022-10-22T08:08:32.491Z,84.03
2022-10-22T08:11:02.080Z,79.55
2022-10-22T08:13:32.494Z,81.90
2022-10-22T08:16:01.651Z,88.53
2022-10-22T08:18:30.175Z,86.07
2022-10-22T08:20:59.235Z,79.88
2022-10-22T08:23:28.950Z,88.32
2022-10-22T08:25:58.507Z,85.95
2022-10-22T08:28:28.814Z,85.05
2022-10-22T08:30:58.416Z,86.68
2022-10-22T08:33:26.650Z,82.00
2022-10-22T08:35:55.104Z,87.82
2022-10-22T08:38:23.479Z,83.05
2022-10-22T08:40:55.914Z,78.00
2022-10-22T08:44:04.255Z,73.25
2022-10-22T08:46:46.627Z,86.35
2022-10-22T08:49:21.188Z,83.28
2022-10-22T08:51:49.707Z,88.03
2022-10-22T08:54:26.156Z,92.28
2022-10-22T08:57:06.105Z,89.05
2022-10-22T08:59:43.122Z,80.18
2022-10-22T09:02:31.652Z,92.38
2022-10-22T09:05:11.628Z,79.60
2022-10-22T09:07:43.211Z,97.00
2022-10-22T09:10:13.878Z,98.80
2022-10-22T09:12:42.358Z,98.00
2022-10-22T09:15:15.343Z,96.25
2022-10-22T09:17:56.482Z,102.72
2022-10-22T09:20:29.997Z,79.32
2022-10-22T09:23:13.906Z,87.35
2022-10-22T09:25:43.397Z,88.50
2022-10-22T09:28:11.642Z,98.90
2022-10-22T09:30:40.492Z,104.35
2022-10-22T09:33:15.498Z,94.63
2022-10-22T09:35:48.475Z,105.90
2022-10-22T09:38:20.239Z,104.95
2022-10-22T09:40:51.008Z,105.72
2022-10-22T09:43:19.911Z,108.72
2022-10-22T09:45:49.562Z,99.22
2022-10-22T09:48:26.687Z,94.57
2022-10-22T09:51:01.380Z,101.57
2022-10-22T09:53:31.713Z,114.97
2022-10-22T09:56:01.727Z,98.78
2022-10-22T09:58:30.107Z,119.93
2022-10-22T10:01:01.266Z,112.07
2022-10-22T10:03:34.115Z,142.23
2022-10-22T10:06:05.970Z,120.45
2022-10-22T10:08:35.047Z,137.02
2022-10-22T10:11:10.935Z,143.35
2022-10-22T10:13:52.846Z,130.70
2022-10-22T10:16:35.946Z,133.82
2022-10-22T10:19:31.843Z,134.80
2022-10-22T10:22:10.667Z,117.47
2022-10-22T10:24:55.762Z,121.55
2022-10-22T10:27:29.626Z,106.25
2022-10-22T10:30:03.739Z,118.07
2022-10-22T10:32:56.255Z,104.45
2022-10-22T10:35:29.337Z,103.47
2022-10-22T10:38:10.420Z,106.20
2022-10-22T10:40:44.985Z,100.97
2022-10-22T10:43:20.382Z,124.05
2022-10-22T10:45:57.834Z,105.88
2022-10-22T10:48:38.199Z,115.07
2022-10-22T10:51:22.070Z,103.32
2022-10-22T10:54:03.571Z,115.22
2022-10-22T10:56:41.299Z,101.40
2022-10-22T10:59:18.684Z,98.18
2022-10-22T11:02:13.893Z,91.03
2022-10-22T11:05:03.095Z,99.22
2022-10-22T11:07:37.798Z,97.18
2022-10-22T11:10:14.864Z,99.25
2022-10-22T11:12:48.929Z,96.55
2022-10-22T11:15:28.700Z,105.88
2022-10-22T11:18:03.432Z,100.32
2022-10-22T11:20:49.702Z,89.55
2022-10-22T11:23:27.026Z,97.95
2022-10-22T11:25:55.327Z,96.30
2022-10-22T11:28:29.948Z,110.30
2022-10-22T11:31:03.939Z,124.15
2022-10-22T11:33:40.664Z,94.05
2022-10-22T11:36:10.438Z,97.85
2022-10-22T11:38:40.013Z,106.00
2022-10-22T11:41:12.949Z,104.95
2022-10-22T11:43:58.963Z,93.53
2022-10-22T11:46:35.730Z,117.10
2022-10-22T11:49:25.332Z,110.65
2022-10-22T11:52:06.388Z,95.07
2022-10-22T11:54:45.808Z,103.57
2022-10-22T11:57:24.424Z,92.50
2022-10-22T11:59:55.468Z,101.75
2022-10-22T12:02:42.928Z,95.80
2022-10-22T12:05:34.968Z,93.18
2022-10-22T12:08:16.205Z,99.65
2022-10-22T12:11:07.910Z,94.30
2022-10-22T12:14:07.185Z,106.03
2022-10-22T12:16:57.229Z,101.53
2022-10-22T12:19:28.794Z,105.90
2022-10-22T12:22:00.481Z,113.80
2022-10-22T12:24:33.720Z,99.38
2022-10-22T12:27:03.451Z,104.03
2022-10-22T12:29:34.112Z,103.93
2022-10-22T12:32:05.624Z,102.88
2022-10-22T12:34:33.913Z,104.20
2022-10-22T12:37:06.760Z,112.07
2022-10-22T12:39:35.526Z,126.22
2022-10-22T12:42:07.294Z,113.38
2022-10-22T12:44:35.430Z,110.70
2022-10-22T12:47:03.688Z,100.20
2022-10-22T12:49:39.401Z,107.57
2022-10-22T12:52:14.127Z,120.43
2022-10-22T12:54:43.094Z,116.38
2022-10-22T12:57:16.962Z,106.90
2022-10-22T12:59:49.887Z,109.35
2022-10-22T13:02:25.062Z,113.75
2022-10-22T13:05:22.945Z,99.78
2022-10-22T13:07:53.423Z,100.70
2022-10-22T13:10:25.857Z,109.35
2022-10-22T13:12:58.856Z,106.60
2022-10-22T13:15:39.615Z,106.80
2022-10-22T13:18:16.843Z,103.57
2022-10-22T13:20:53.181Z,111.45
2022-10-22T13:23:23.472Z,105.68
2022-10-22T13:26:00.382Z,105.00
2022-10-22T13:28:31.589Z,110.45
2022-10-22T13:31:02.002Z,109.00
2022-10-22T13:33:36.795Z,94.85
2022-10-22T13:36:05.731Z,100.65
2022-10-22T13:38:33.951Z,94.97
2022-10-22T13:41:03.290Z,107.45
2022-10-22T13:43:32.939Z,108.30
2022-10-22T13:46:01.869Z,100.15
2022-10-22T13:48:33.291Z,110.10
2022-10-22T13:51:01.509Z,102.95
2022-10-22T13:53:31.328Z,125.68
2022-10-22T13:55:59.560Z,113.53
2022-10-22T13:58:27.833Z,106.38
2022-10-22T14:01:00.001Z,100.05
2022-10-22T14:03:31.840Z,115.78
2022-10-22T14:06:00.179Z,101.00
2022-10-22T14:08:29.459Z,116.72
2022-10-22T14:10:57.985Z,104.38
2022-10-22T14:13:26.702Z,93.28
2022-10-22T14:15:55.453Z,99.15
2022-10-22T14:18:28.968Z,108.22
2022-10-22T14:20:59.990Z,97.47
2022-10-22T14:23:30.683Z,109.18
2022-10-22T14:25:59.553Z,101.05
2022-10-22T14:28:27.865Z,104.75
2022-10-22T14:30:56.803Z,102.60
2022-10-22T14:33:31.275Z,85.35
2022-10-22T14:36:00.249Z,95.35
2022-10-22T14:38:28.642Z,109.80
2022-10-22T14:40:57.462Z,93.88
2022-10-22T14:43:27.485Z,108.70
2022-10-22T14:45:56.575Z,95.03
2022-10-22T14:48:26.283Z,89.57
2022-10-22T14:50:56.102Z,97.90
2022-10-22T14:53:24.301Z,96.70
2022-10-22T14:55:55.525Z,95.43
2022-10-22T14:58:23.654Z,94.85
2022-10-22T15:00:52.055Z,104.28
2022-10-22T15:03:20.443Z,90.65
2022-10-22T15:05:53.805Z,101.63
2022-10-22T15:08:22.266Z,94.18
2022-10-22T15:11:00.002Z,93.45
2022-10-22T15:13:28.804Z,92.20
2022-10-22T15:15:57.197Z,91.28
2022-10-22T15:18:26.130Z,98.55
2022-10-22T15:21:00.524Z,98.68
2022-10-22T15:23:28.896Z,91.25
2022-10-22T15:25:57.853Z,98.53
2022-10-22T15:28:26.672Z,95.13
2022-10-22T15:30:56.265Z,102.60
2022-10-22T15:33:24.882Z,100.22
2022-10-22T15:35:53.222Z,103.30
2022-10-22T15:38:23.723Z,108.15
2022-10-22T15:41:04.464Z,96.20
2022-10-22T15:43:33.853Z,103.78
2022-10-22T15:46:11.411Z,99.82
2022-10-22T15:48:39.734Z,98.15
2022-10-22T15:51:13.000Z,105.32
2022-10-22T15:53:43.044Z,98.10
2022-10-22T15:56:12.806Z,119.00
2022-10-22T15:58:41.070Z,105.82
2022-10-22T16:01:11.451Z,105.03
2022-10-22T16:03:39.886Z,107.57
2022-10-22T16:06:09.708Z,114.03
2022-10-22T16:08:38.623Z,108.53
2022-10-22T16:11:08.289Z,107.05
2022-10-22T16:13:37.410Z,130.10
2022-10-22T16:16:08.149Z,104.85
2022-10-22T16:18:36.594Z,112.78
2022-10-22T16:21:05.009Z,122.38
2022-10-22T16:23:33.254Z,122.28
2022-10-22T16:26:03.000Z,118.00
2022-10-22T16:31:05.999Z,116.35
2022-10-22T16:33:41.412Z,117.97
2022-10-22T16:36:14.111Z,122.25
2022-10-22T16:38:42.309Z,112.45
2022-10-22T16:41:12.173Z,127.03
2022-10-22T16:43:42.293Z,122.05
2022-10-22T16:46:10.560Z,135.00
2022-10-22T16:48:41.357Z,145.65
2022-10-22T16:51:11.455Z,127.85
2022-10-22T16:53:39.731Z,132.05
2022-10-22T16:56:10.696Z,124.28
2022-10-22T16:58:39.694Z,132.77
2022-10-22T17:01:10.228Z,120.60
2022-10-22T17:03:38.513Z,136.07
2022-10-22T17:06:07.647Z,147.10
2022-10-22T17:08:37.793Z,152.52
2022-10-22T17:11:10.708Z,165.38
2022-10-22T17:13:39.434Z,160.95
2022-10-22T17:16:11.604Z,150.07
2022-10-22T17:18:41.332Z,144.55
2022-10-22T17:21:11.807Z,164.57
2022-10-22T17:23:40.317Z,163.55
2022-10-22T17:26:13.989Z,171.77
2022-10-22T17:28:42.442Z,172.73
2022-10-22T17:31:17.231Z,160.70
2022-10-22T17:33:46.354Z,164.48
2022-10-22T17:36:15.525Z,159.95
2022-10-22T17:38:45.433Z,158.95
2022-10-22T17:41:18.740Z,206.93
2022-10-22T17:43:47.602Z,180.60
2022-10-22T17:46:22.115Z,181.13
2022-10-22T17:48:51.221Z,167.77
2022-10-22T17:51:19.948Z,177.75
2022-10-22T17:53:50.268Z,162.35
2022-10-22T17:56:21.129Z,186.98
2022-10-22T17:58:49.732Z,171.95
2022-10-22T18:01:22.080Z,178.35
2022-10-22T18:03:50.548Z,179.15
2022-10-22T18:06:26.850Z,176.20
2022-10-22T18:08:55.152Z,181.88
2022-10-22T18:11:25.991Z,183.57
2022-10-22T18:13:57.591Z,183.90
2022-10-22T18:16:27.954Z,177.80
2022-10-22T18:18:58.676Z,205.02
2022-10-22T18:21:28.618Z,198.05
2022-10-22T18:23:59.119Z,227.50
2022-10-22T18:26:27.471Z,197.35
2022-10-22T18:28:56.265Z,188.13
2022-10-22T18:31:33.699Z,176.25
2022-10-22T18:34:01.973Z,193.35
2022-10-22T18:36:30.180Z,192.40
2022-10-22T18:39:00.672Z,190.27
2022-10-22T18:41:31.065Z,180.55
2022-10-22T18:44:01.608Z,185.20
2022-10-22T18:46:30.746Z,185.85
2022-10-22T18:49:00.517Z,183.88
2022-10-22T18:51:31.750Z,172.25
2022-10-22T18:54:22.147Z,170.75
2022-10-22T18:56:48.914Z,181.95
2022-10-22T18:59:20.009Z,168.10
2022-10-22T19:01:48.329Z,193.98
2022-10-22T19:04:18.255Z,165.35
2022-10-22T19:06:47.135Z,147.30
2022-10-22T19:09:16.148Z,167.65
2022-10-22T19:11:45.692Z,154.15
2022-10-22T19:14:15.206Z,156.00
2022-10-22T19:16:43.657Z,138.23
2022-10-22T19:19:16.020Z,148.20
2022-10-22T19:21:46.006Z,164.75
2022-10-22T19:24:16.053Z,125.50
2022-10-22T19:26:45.006Z,159.25
2022-10-22T19:29:15.836Z,148.80
2022-10-22T19:31:44.880Z,139.25
2022-10-22T19:34:13.302Z,149.40
2022-10-22T19:36:41.980Z,133.55
2022-10-22T19:39:11.791Z,123.05
2022-10-22T19:41:40.495Z,135.38
2022-10-22T19:44:09.111Z,124.72
2022-10-22T19:46:38.154Z,117.88
2022-10-22T19:49:07.158Z,160.63
2022-10-22T19:51:35.621Z,109.85
2022-10-22T19:54:06.046Z,108.25
2022-10-22T19:56:37.759Z,118.97
2022-10-22T19:59:07.088Z,120.85
2022-10-22T20:01:35.536Z,96.85
2022-10-22T20:04:03.882Z,109.82
2022-10-22T20:06:32.343Z,98.45
2022-10-22T20:09:00.659Z,112.50
2022-10-22T20:11:31.252Z,109.90
2022-10-22T20:14:00.987Z,99.78
2022-10-22T20:16:30.709Z,109.43
2022-10-22T20:19:02.138Z,88.70
2022-10-22T20:21:31.904Z,94.00
2022-10-22T20:24:00.791Z,95.20
2022-10-22T20:26:32.387Z,100.70
2022-10-22T20:29:02.033Z,89.68
2022-10-22T20:31:32.898Z,77.45
2022-10-22T20:34:02.906Z,78.28
2022-10-22T20:36:32.908Z,81.25
2022-10-22T20:39:03.174Z,84.32
2022-10-22T20:41:31.876Z,80.30
2022-10-22T20:44:14.512Z,101.50
2022-10-22T20:46:46.163Z,79.43
2022-10-22T20:49:16.939Z,84.55
2022-10-22T20:51:45.695Z,91.88
2022-10-22T20:54:16.211Z,78.05
2022-10-22T20:56:44.864Z,72.03
2022-10-22T20:59:34.862Z,91.63
2022-10-22T21:02:04.248Z,74.40
2022-10-22T21:04:33.578Z,80.68
2022-10-22T21:07:01.909Z,80.85
2022-10-22T21:09:30.188Z,97.50
2022-10-22T21:12:03.271Z,77.30
2022-10-22T21:14:33.209Z,76.85
2022-10-22T21:17:01.447Z,89.28
2022-10-22T21:19:29.763Z,91.55
2022-10-22T21:21:58.571Z,120.57
2022-10-22T21:24:27.376Z,84.78
2022-10-22T21:26:55.722Z,121.50
2022-10-22T21:29:26.952Z,96.05
2022-10-22T21:31:58.684Z,107.88
2022-10-22T21:34:27.093Z,119.25
2022-10-22T21:36:55.393Z,117.20
2022-10-22T21:39:23.649Z,115.45
2022-10-22T21:41:51.961Z,111.53
2022-10-22T21:44:20.269Z,127.80
2022-10-22T21:46:48.499Z,115.45
2022-10-22T21:49:18.257Z,110.20
2022-10-22T21:51:46.415Z,143.73
2022-10-22T21:54:14.695Z,143.70
2022-10-22T21:56:45.548Z,116.13
2022-10-22T21:59:13.697Z,120.72
2022-10-22T22:01:41.985Z,122.05
2022-10-22T22:04:10.359Z,118.25
2022-10-22T22:06:40.017Z,107.22
2022-10-22T22:09:08.488Z,140.13
2022-10-22T22:11:36.805Z,113.68
2022-10-22T22:14:04.947Z,112.70
2022-10-22T22:16:35.148Z,119.70
2022-10-22T22:21:33.825Z,118.65
2022-10-22T22:24:04.154Z,126.82
2022-10-22T22:26:32.390Z,143.55
2022-10-22T22:29:02.168Z,127.85
2022-10-22T22:31:32.205Z,108.28
2022-10-22T22:34:01.453Z,106.95
2022-10-22T22:36:36.004Z,137.65
2022-10-22T22:39:09.450Z,141.57
2022-10-22T22:41:37.565Z,101.57
2022-10-22T22:44:06.171Z,112.80
2022-10-22T22:46:34.461Z,122.43
2022-10-22T22:49:02.740Z,118.28
2022-10-22T22:51:30.984Z,105.20
2022-10-22T22:54:00.178Z,117.35
2022-10-22T22:56:32.768Z,113.75
2022-10-22T22:59:01.163Z,128.63
2022-10-22T23:01:30.755Z,115.18
2022-10-22T23:04:01.126Z,131.27
2022-10-22T23:06:34.819Z,121.25
2022-10-22T23:09:04.011Z,109.03
2022-10-22T23:11:33.940Z,127.72
2022-10-22T23:14:03.924Z,107.88
2022-10-22T23:16:36.778Z,110.63
2022-10-22T23:19:06.220Z,95.68
2022-10-22T23:21:36.320Z,105.03
2022-10-22T23:24:07.452Z,106.35
2022-10-22T23:26:39.475Z,121.65
2022-10-22T23:29:10.684Z,103.03
2022-10-22T23:31:39.161Z,94.10
2022-10-22T23:34:08.716Z,95.60
2022-10-22T23:36:38.322Z,88.13
2022-10-22T23:39:07.233Z,81.43
2022-10-22T23:41:36.922Z,108.70
2022-10-22T23:44:05.759Z,93.68
2022-10-22T23:46:34.427Z,94.53
2022-10-22T23:49:02.914Z,116.93
2022-10-22T23:51:31.088Z,96.07
2022-10-22T23:54:01.114Z,84.05
2022-10-22T23:56:30.342Z,114.40
2022-10-22T23:59:00.017Z,109.18
